createdAt,value
2019-04-23T00:02:13.115Z,37.47
2019-04-23T00:04:35.176Z,37.40
2019-04-23T00:07:26.568Z,37.64
2019-04-23T00:09:47.058Z,38.12
2019-04-23T00:12:24.969Z,37.89
2019-04-23T00:14:55.201Z,38.04
2019-04-23T00:17:26.883Z,38.39
2019-04-23T00:19:47.265Z,37.88
2019-04-23T00:22:34.766Z,38.22
2019-04-23T00:25:25.655Z,38.73
2019-04-23T00:30:18.639Z,38.66
2019-04-23T00:32:36.311Z,39.44
2019-04-23T00:35:06.360Z,39.53
2019-04-23T00:37:35.397Z,39.42
2019-04-23T00:40:04.454Z,39.17
2019-04-23T00:42:41.586Z,39.54
2019-04-23T00:45:12.784Z,39.50
2019-04-23T00:47:40.932Z,39.66
2019-04-23T00:50:30.596Z,39.98
2019-04-23T00:52:40.055Z,40.52
2019-04-23T00:57:43.942Z,40.45
2019-04-23T01:00:31.138Z,40.52
2019-04-23T01:03:01.784Z,41.10
2019-04-23T01:05:21.452Z,41.27
2019-04-23T01:10:25.520Z,41.11
2019-04-23T01:12:54.354Z,41.50
2019-04-23T01:15:26.016Z,41.86
2019-04-23T01:18:08.490Z,41.83
2019-04-23T01:20:36.869Z,41.79
2019-04-23T01:22:48.776Z,41.79
2019-04-23T01:25:40.441Z,41.90
2019-04-23T01:28:26.562Z,41.68
2019-04-23T01:31:02.209Z,42.21
2019-04-23T01:33:35.453Z,42.19
2019-04-23T01:38:35.479Z,41.71
2019-04-23T01:41:03.540Z,41.54
2019-04-23T01:43:38.244Z,41.45
2019-04-23T01:46:08.061Z,41.52
2019-04-23T01:48:40.780Z,41.88
2019-04-23T01:51:04.345Z,42.06
2019-04-23T01:53:38.654Z,42.56
2019-04-23T01:56:18.056Z,42.62
2019-04-23T02:01:11.761Z,42.70
2019-04-23T02:03:46.997Z,43.03
2019-04-23T02:06:13.549Z,42.61
2019-04-23T02:08:48.697Z,42.85
2019-04-23T02:11:13.263Z,43.17
2019-04-23T02:13:49.002Z,42.82
2019-04-23T02:16:19.163Z,42.84
2019-04-23T02:21:26.375Z,43.20
2019-04-23T02:23:55.387Z,43.42
2019-04-23T02:31:58.042Z,44.47
2019-04-23T02:36:45.150Z,44.58
2019-04-23T02:39:03.546Z,44.42
2019-04-23T02:41:54.367Z,44.79
2019-04-23T02:44:21.841Z,45.08
2019-04-23T02:46:56.686Z,44.65
2019-04-23T02:49:20.476Z,44.70
2019-04-23T02:51:54.361Z,44.52
2019-04-23T02:54:36.755Z,45.53
2019-04-23T03:01:54.471Z,45.78
2019-04-23T03:04:30.370Z,45.74
2019-04-23T03:07:07.287Z,45.08
2019-04-23T03:12:09.826Z,45.16
2019-04-23T03:14:24.707Z,46.02
2019-04-23T03:17:00.317Z,46.03
2019-04-23T03:22:15.365Z,46.52
2019-04-23T03:25:10.249Z,46.00
2019-04-23T03:34:42.611Z,46.03
2019-04-23T03:35:36.146Z,46.18
2019-04-23T03:37:40.155Z,47.04
2019-04-23T03:40:11.594Z,46.76
2019-04-23T03:55:28.198Z,47.01
2019-04-23T03:57:46.968Z,47.47
2019-04-23T04:03:01.399Z,47.06
2019-04-23T04:05:32.830Z,47.53
2019-04-23T04:10:33.972Z,47.55
2019-04-23T04:13:04.163Z,48.15
2019-04-23T04:18:18.623Z,47.73
2019-04-23T04:20:39.758Z,48.00
2019-04-23T04:25:42.843Z,48.21
2019-04-23T04:30:48.286Z,48.06
2019-04-23T04:33:32.052Z,48.18
2019-04-23T04:36:10.322Z,48.43
2019-04-23T04:38:38.691Z,48.42
2019-04-23T04:43:32.210Z,48.28
2019-04-23T04:48:32.953Z,48.52
2019-04-23T04:53:47.771Z,49.05
2019-04-23T04:56:16.762Z,49.23
2019-04-23T04:58:44.063Z,48.72
2019-04-23T05:03:29.552Z,49.12
2019-04-23T05:08:39.684Z,49.60
2019-04-23T05:13:53.012Z,50.10
2019-04-23T05:16:07.885Z,49.47
2019-04-23T05:23:42.881Z,48.88
2019-04-23T05:26:20.938Z,48.24
2019-04-23T05:28:55.911Z,48.99
2019-04-23T05:31:18.707Z,49.00
2019-04-23T05:33:52.179Z,48.97
2019-04-23T05:41:37.021Z,48.72
2019-04-23T05:43:57.226Z,48.54
2019-04-23T05:49:04.601Z,48.91
2019-04-23T05:53:58.441Z,48.71
2019-04-23T05:56:27.840Z,47.92
2019-04-23T05:59:06.743Z,48.21
2019-04-23T06:04:11.707Z,47.71
2019-04-23T06:11:50.966Z,47.19
2019-04-23T06:14:17.377Z,47.12
2019-04-23T06:16:41.609Z,47.69
2019-04-23T06:19:12.862Z,47.29
2019-04-23T06:21:56.163Z,47.04
2019-04-23T06:24:24.903Z,46.45
2019-04-23T06:26:45.591Z,46.10
2019-04-23T06:29:22.506Z,46.48
2019-04-23T06:31:48.835Z,46.50
2019-04-23T06:34:24.791Z,46.51
2019-04-23T06:36:51.193Z,46.74
2019-04-23T06:39:21.425Z,46.62
2019-04-23T06:49:30.757Z,45.95
2019-04-23T06:52:12.985Z,45.73
2019-04-23T06:54:45.851Z,45.71
2019-04-23T06:57:17.997Z,45.80
2019-04-23T07:02:18.729Z,45.59
2019-04-23T07:04:41.015Z,45.29
2019-04-23T07:07:34.757Z,45.81
2019-04-23T07:09:35.478Z,45.84
2019-04-23T07:12:08.904Z,45.05
2019-04-23T07:14:47.694Z,44.79
2019-04-23T07:19:42.400Z,44.57
2019-04-23T07:22:16.011Z,44.70
2019-04-23T07:24:51.060Z,44.30
2019-04-23T07:27:20.934Z,44.77
2019-04-23T07:32:19.575Z,43.76
2019-04-23T07:34:57.428Z,44.81
2019-04-23T07:37:17.285Z,44.53
2019-04-23T07:40:11.313Z,45.56
2019-04-23T07:42:39.433Z,44.92
2019-04-23T07:48:16.445Z,46.16
2019-04-23T07:53:19.680Z,43.72
2019-04-23T07:58:25.768Z,43.02
2019-04-23T08:03:20.997Z,44.11
2019-04-23T08:05:49.073Z,44.68
2019-04-23T08:08:26.456Z,44.13
2019-04-23T08:11:30.799Z,44.60
2019-04-23T08:21:21.213Z,42.42
2019-04-23T08:23:57.308Z,41.97
2019-04-23T08:26:34.835Z,41.91
2019-04-23T08:34:09.164Z,41.91
2019-04-23T08:36:34.532Z,42.44
2019-04-23T08:39:05.344Z,42.03
2019-04-23T08:41:46.549Z,42.20
2019-04-23T08:47:13.360Z,41.94
2019-04-23T08:49:50.577Z,42.42
2019-04-23T08:52:11.791Z,41.99
2019-04-23T08:57:18.940Z,41.85
2019-04-23T09:03:03.058Z,41.46
2019-04-23T09:04:54.080Z,41.61
2019-04-23T09:09:57.627Z,41.54
2019-04-23T09:12:24.190Z,40.82
2019-04-23T09:14:53.848Z,40.93
2019-04-23T09:17:27.761Z,40.73
2019-04-23T09:20:18.603Z,40.91
2019-04-23T09:22:28.293Z,40.44
2019-04-23T09:27:27.358Z,39.83
2019-04-23T09:30:01.926Z,40.02
2019-04-23T09:32:28.412Z,39.86
2019-04-23T09:35:27.546Z,38.90
2019-04-23T09:38:11.468Z,39.36
2019-04-23T09:43:22.670Z,39.72
2019-04-23T09:46:08.351Z,40.16
2019-04-23T09:48:38.825Z,40.58
2019-04-23T09:51:03.139Z,40.02
2019-04-23T09:56:01.546Z,40.26
2019-04-23T09:58:34.491Z,40.16
2019-04-23T10:03:47.890Z,39.79
2019-04-23T10:06:16.111Z,39.92
2019-04-23T10:08:46.767Z,39.90
2019-04-23T10:11:11.279Z,40.02
2019-04-23T10:13:42.658Z,39.76
2019-04-23T10:16:15.354Z,39.22
2019-04-23T10:18:44.794Z,39.07
2019-04-23T10:21:15.531Z,38.67
2019-04-23T10:23:45.208Z,38.22
2019-04-23T10:26:16.277Z,38.58
2019-04-23T10:28:57.995Z,38.35
2019-04-23T10:31:27.645Z,38.19
2019-04-23T10:33:57.942Z,37.68
2019-04-23T10:36:30.520Z,38.48
2019-04-23T10:39:07.423Z,38.35
2019-04-23T10:41:33.241Z,37.56
2019-04-23T10:44:09.041Z,37.19
2019-04-23T10:47:23.469Z,36.51
2019-04-23T10:50:05.790Z,37.28
2019-04-23T10:52:33.783Z,37.47
2019-04-23T10:55:03.248Z,36.90
2019-04-23T10:57:45.974Z,36.63
2019-04-23T11:00:05.396Z,36.29
2019-04-23T11:02:39.001Z,35.83
2019-04-23T11:05:26.645Z,35.89
2019-04-23T11:07:41.991Z,34.81
2019-04-23T11:10:14.575Z,35.24
2019-04-23T11:13:11.345Z,35.03
2019-04-23T11:15:34.816Z,33.88
2019-04-23T11:17:52.449Z,34.38
2019-04-23T11:28:11.406Z,32.67
2019-04-23T11:30:36.076Z,31.56
2019-04-23T11:33:22.094Z,31.57
2019-04-23T11:35:53.066Z,30.80
2019-04-23T11:38:35.528Z,30.30
2019-04-23T11:40:37.191Z,29.82
2019-04-23T11:43:15.536Z,29.79
2019-04-23T11:48:34.323Z,27.58
2019-04-23T11:51:21.878Z,28.20
2019-04-23T11:53:24.142Z,27.27
2019-04-23T11:58:20.455Z,26.31
2019-04-23T12:01:47.663Z,26.21
2019-04-23T12:04:05.418Z,25.91
2019-04-23T12:09:16.096Z,25.54
2019-04-23T12:17:13.000Z,25.20
2019-04-23T12:24:57.513Z,24.77
2019-04-23T12:27:08.425Z,23.40
2019-04-23T12:29:44.053Z,24.11
2019-04-23T12:40:15.709Z,23.06
2019-04-23T12:42:58.693Z,22.70
2019-04-23T12:45:20.665Z,22.19
2019-04-23T12:47:49.246Z,21.29
2019-04-23T12:52:49.053Z,20.93
2019-04-23T12:57:49.006Z,20.44
2019-04-23T13:00:23.288Z,20.36
2019-04-23T13:05:23.167Z,20.02
2019-04-23T13:07:52.472Z,19.15
2019-04-23T13:13:09.303Z,19.22
2019-04-23T13:17:54.172Z,19.64
2019-04-23T13:20:28.092Z,19.52
2019-04-23T13:23:08.647Z,19.46
2019-04-23T13:25:39.830Z,18.94
2019-04-23T13:28:12.968Z,19.23
2019-04-23T13:30:46.741Z,19.26
2019-04-23T13:36:03.631Z,19.62
2019-04-23T13:38:28.566Z,19.39
2019-04-23T13:40:57.191Z,19.02
2019-04-23T13:43:37.734Z,19.31
2019-04-23T13:46:08.543Z,19.31
2019-04-23T13:51:00.285Z,19.34
2019-04-23T13:53:40.344Z,19.22
2019-04-23T13:58:26.742Z,19.21
2019-04-23T14:01:13.997Z,19.59
2019-04-23T14:03:45.232Z,19.58
2019-04-23T14:06:18.124Z,19.85
2019-04-23T14:08:47.501Z,20.11
2019-04-23T14:16:21.214Z,20.44
2019-04-23T14:21:20.434Z,21.21
2019-04-23T14:29:01.387Z,23.00
2019-04-23T14:31:17.311Z,23.49
2019-04-23T14:34:02.525Z,23.99
2019-04-23T14:41:23.690Z,24.69
2019-04-23T14:44:00.486Z,24.69
2019-04-23T14:51:51.524Z,25.29
2019-04-23T14:54:09.286Z,25.62
2019-04-23T14:56:51.537Z,25.14
2019-04-23T14:59:07.250Z,25.68
2019-04-23T15:04:03.232Z,25.80
2019-04-23T15:09:22.603Z,25.66
2019-04-23T15:14:16.924Z,26.22
2019-04-23T15:22:04.818Z,26.53
2019-04-23T15:24:26.295Z,26.43
2019-04-23T15:29:12.811Z,25.65
2019-04-23T15:32:03.295Z,25.63
2019-04-23T15:34:23.486Z,26.10
2019-04-23T15:37:14.017Z,26.66
2019-04-23T15:42:12.564Z,26.02
2019-04-23T15:44:32.335Z,27.07
2019-04-23T15:47:12.517Z,26.81
2019-04-23T15:52:14.291Z,26.07
2019-04-23T15:54:45.457Z,25.79
2019-04-23T15:57:45.042Z,24.86
2019-04-23T15:59:47.860Z,25.55
2019-04-23T16:01:46.850Z,25.63
2019-04-23T16:04:18.134Z,25.46
2019-04-23T16:06:47.853Z,25.92
2019-04-23T16:09:52.279Z,26.44
2019-04-23T16:12:09.754Z,26.40
2019-04-23T16:15:02.707Z,26.85
2019-04-23T16:20:06.126Z,27.01
2019-04-23T16:22:26.848Z,27.18
2019-04-23T16:25:08.071Z,27.00
2019-04-23T16:27:19.623Z,27.20
2019-04-23T16:30:09.759Z,27.67
2019-04-23T16:32:51.743Z,27.66
2019-04-23T16:35:28.377Z,27.95
2019-04-23T16:38:01.428Z,28.00
2019-04-23T16:43:02.079Z,28.26
2019-04-23T16:45:25.473Z,28.23
2019-04-23T16:47:59.580Z,28.48
2019-04-23T16:50:28.715Z,28.61
2019-04-23T16:53:00.273Z,31.12
2019-04-23T16:55:24.025Z,33.12
2019-04-23T16:58:04.043Z,30.93
2019-04-23T17:00:35.266Z,30.09
2019-04-23T17:03:11.972Z,29.80
2019-04-23T17:05:34.092Z,30.09
2019-04-23T17:08:33.850Z,30.34
2019-04-23T17:10:38.801Z,30.55
2019-04-23T17:13:17.547Z,30.71
2019-04-23T17:15:48.412Z,30.76
2019-04-23T17:18:12.036Z,30.82
2019-04-23T17:20:47.424Z,31.48
2019-04-23T17:23:29.408Z,32.01
2019-04-23T17:25:48.538Z,32.49
2019-04-23T17:28:18.209Z,32.21
2019-04-23T17:31:01.308Z,31.74
2019-04-23T17:33:34.631Z,32.52
2019-04-23T17:36:13.184Z,32.71
2019-04-23T17:38:49.614Z,32.48
2019-04-23T17:44:01.401Z,32.97
2019-04-23T17:46:27.010Z,33.31
2019-04-23T17:48:56.936Z,33.13
2019-04-23T17:51:28.173Z,33.20
2019-04-23T17:54:10.887Z,33.20
2019-04-23T17:59:04.319Z,33.77
2019-04-23T18:01:43.625Z,34.67
2019-04-23T18:04:06.360Z,34.97
2019-04-23T18:09:16.617Z,34.22
2019-04-23T18:11:37.750Z,34.73
2019-04-23T18:14:09.903Z,34.48
2019-04-23T18:16:47.884Z,34.85
2019-04-23T18:19:15.036Z,35.33
2019-04-23T18:21:50.639Z,36.13
2019-04-23T18:27:00.089Z,36.82
2019-04-23T18:29:41.818Z,36.85
2019-04-23T18:35:03.649Z,37.27
2019-04-23T18:37:17.854Z,40.40
2019-04-23T18:39:45.119Z,42.13
2019-04-23T18:42:34.330Z,42.34
2019-04-23T18:47:29.991Z,44.33
2019-04-23T18:49:45.370Z,44.47
2019-04-23T18:52:27.604Z,44.99
2019-04-23T18:54:48.870Z,45.59
2019-04-23T19:02:51.812Z,47.08
2019-04-23T19:05:15.142Z,47.60
2019-04-23T19:08:08.764Z,47.98
2019-04-23T19:10:51.042Z,48.55
2019-04-23T19:13:31.166Z,48.66
2019-04-23T19:16:04.092Z,48.42
2019-04-23T19:18:30.481Z,49.27
2019-04-23T19:21:07.768Z,49.31
2019-04-23T19:25:49.848Z,50.07
2019-04-23T19:28:44.442Z,50.59
2019-04-23T19:31:16.396Z,50.19
2019-04-23T19:33:35.239Z,49.94
2019-04-23T19:41:03.074Z,51.10
2019-04-23T19:46:16.168Z,51.79
2019-04-23T19:48:48.185Z,51.86
2019-04-23T19:51:08.925Z,52.28
2019-04-23T19:53:55.474Z,51.83
2019-04-23T19:58:44.968Z,53.08
2019-04-23T20:03:49.307Z,53.30
2019-04-23T20:09:12.667Z,53.96
2019-04-23T20:16:29.929Z,53.57
2019-04-23T20:21:19.529Z,55.14
2019-04-23T20:34:51.832Z,54.95
2019-04-23T20:36:56.105Z,55.21
2019-04-23T20:39:32.745Z,55.43
2019-04-23T20:49:43.193Z,55.90
2019-04-23T20:52:10.584Z,56.21
2019-04-23T20:54:51.202Z,56.86
2019-04-23T20:57:43.859Z,56.91
2019-04-23T21:05:15.058Z,57.75
2019-04-23T21:07:52.571Z,57.68
2019-04-23T21:12:50.087Z,57.84
2019-04-23T21:15:16.043Z,57.89
2019-04-23T21:17:51.294Z,57.46
2019-04-23T21:20:14.248Z,57.39
2019-04-23T21:22:41.527Z,57.30
2019-04-23T21:25:08.202Z,56.71
2019-04-23T21:30:23.518Z,55.79
2019-04-23T21:33:07.249Z,55.39
2019-04-23T21:35:42.559Z,54.76
2019-04-23T21:38:00.852Z,54.29
2019-04-23T21:43:11.814Z,54.80
2019-04-23T21:45:52.472Z,54.68
2019-04-23T21:48:15.682Z,54.61
2019-04-23T21:53:20.228Z,54.48
2019-04-23T21:55:54.279Z,54.51
2019-04-23T22:03:34.414Z,55.68
2019-04-23T22:06:01.751Z,55.04
2019-04-23T22:08:27.042Z,55.80
2019-04-23T22:11:10.566Z,55.94
2019-04-23T22:13:49.076Z,55.14
2019-04-23T22:16:06.006Z,54.56
2019-04-23T22:18:34.555Z,55.02
2019-04-23T22:21:15.638Z,55.04
2019-04-23T22:23:45.910Z,54.99
2019-04-23T22:26:07.839Z,55.06
2019-04-23T22:28:44.706Z,55.26
2019-04-23T22:31:14.828Z,55.52
2019-04-23T22:33:37.370Z,55.20
2019-04-23T22:36:11.281Z,55.33
2019-04-23T22:38:45.168Z,55.60
2019-04-23T22:41:10.555Z,56.03
2019-04-23T22:43:47.564Z,55.83
2019-04-23T22:46:16.119Z,56.16
2019-04-23T22:49:10.238Z,55.69
2019-04-23T22:51:29.077Z,55.34
2019-04-23T22:54:07.071Z,54.02
2019-04-23T22:56:31.830Z,53.68
2019-04-23T22:59:11.900Z,52.36
2019-04-23T23:01:43.190Z,52.68
2019-04-23T23:06:48.568Z,52.15
2019-04-23T23:09:22.559Z,51.85
2019-04-23T23:11:51.083Z,52.58
2019-04-23T23:14:18.569Z,51.77
2019-04-23T23:16:45.102Z,51.50
2019-04-23T23:21:59.512Z,51.47
2019-04-23T23:24:15.427Z,51.53
2019-04-23T23:26:55.986Z,51.44
2019-04-23T23:29:19.156Z,50.89
2019-04-23T23:34:27.749Z,51.47
2019-04-23T23:37:02.161Z,50.96
2019-04-23T23:41:58.883Z,51.62
2019-04-23T23:47:04.358Z,51.33
2019-04-23T23:51:57.709Z,51.69
2019-04-23T23:54:27.479Z,52.61
2019-04-23T23:57:03.737Z,52.70
